sensor_id;sensor_type;location;lat;lon;timestamp;P1;durP1;ratioP1;P2;durP2;ratioP2
4921;SDS011;16625;53.624;10.106;2022-07-09T00:01:11;11.23;;;4.50;;
4921;SDS011;16625;53.624;10.106;2022-07-09T00:03:39;12.20;;;3.70;;
4921;SDS011;16625;53.624;10.106;2022-07-09T00:06:07;9.50;;;4.83;;
4921;SDS011;16625;53.624;10.106;2022-07-09T00:08:37;11.93;;;3.90;;
4921;SDS011;16625;53.624;10.106;2022-07-09T00:11:07;14.73;;;4.13;;
4921;SDS011;16625;53.624;10.106;2022-07-09T00:13:36;11.70;;;5.03;;
4921;SDS011;16625;53.624;10.106;2022-07-09T00:16:05;8.60;;;4.07;;
4921;SDS011;16625;53.624;10.106;2022-07-09T00:18:33;14.37;;;4.97;;
4921;SDS011;16625;53.624;10.106;2022-07-09T00:21:15;14.87;;;4.63;;
4921;SDS011;16625;53.624;10.106;2022-07-09T00:23:47;13.40;;;4.50;;
4921;SDS011;16625;53.624;10.106;2022-07-09T00:26:18;11.50;;;4.60;;
4921;SDS011;16625;53.624;10.106;2022-07-09T00:28:47;16.30;;;4.83;;
4921;SDS011;16625;53.624;10.106;2022-07-09T00:31:19;17.20;;;5.10;;
4921;SDS011;16625;53.624;10.106;2022-07-09T00:33:54;15.63;;;5.17;;
4921;SDS011;16625;53.624;10.106;2022-07-09T00:36:28;9.60;;;4.40;;
4921;SDS011;16625;53.624;10.106;2022-07-09T00:38:57;14.30;;;5.30;;
4921;SDS011;16625;53.624;10.106;2022-07-09T00:41:31;11.10;;;4.40;;
4921;SDS011;16625;53.624;10.106;2022-07-09T00:44:14;11.13;;;4.90;;
4921;SDS011;16625;53.624;10.106;2022-07-09T00:46:55;13.03;;;4.60;;
4921;SDS011;16625;53.624;10.106;2022-07-09T00:49:26;15.70;;;5.00;;
4921;SDS011;16625;53.624;10.106;2022-07-09T00:51:56;13.00;;;5.20;;
4921;SDS011;16625;53.624;10.106;2022-07-09T00:54:24;14.03;;;4.60;;
4921;SDS011;16625;53.624;10.106;2022-07-09T00:56:57;11.10;;;4.10;;
4921;SDS011;16625;53.624;10.106;2022-07-09T00:59:25;11.23;;;5.23;;
4921;SDS011;16625;53.624;10.106;2022-07-09T01:02:08;11.33;;;4.27;;
4921;SDS011;16625;53.624;10.106;2022-07-09T01:04:36;18.73;;;4.93;;
4921;SDS011;16625;53.624;10.106;2022-07-09T01:07:06;14.23;;;4.90;;
4921;SDS011;16625;53.624;10.106;2022-07-09T01:09:37;18.47;;;5.13;;
4921;SDS011;16625;53.624;10.106;2022-07-09T01:12:10;8.27;;;4.70;;
4921;SDS011;16625;53.624;10.106;2022-07-09T01:14:40;23.43;;;5.33;;
4921;SDS011;16625;53.624;10.106;2022-07-09T01:17:09;12.77;;;5.40;;
4921;SDS011;16625;53.624;10.106;2022-07-09T01:19:36;19.53;;;5.43;;
4921;SDS011;16625;53.624;10.106;2022-07-09T01:22:15;10.60;;;5.37;;
4921;SDS011;16625;53.624;10.106;2022-07-09T01:24:43;14.37;;;4.93;;
4921;SDS011;16625;53.624;10.106;2022-07-09T01:27:11;14.43;;;4.70;;
4921;SDS011;16625;53.624;10.106;2022-07-09T01:29:54;13.73;;;4.87;;
4921;SDS011;16625;53.624;10.106;2022-07-09T01:32:30;11.27;;;4.90;;
4921;SDS011;16625;53.624;10.106;2022-07-09T01:35:15;13.43;;;4.40;;
4921;SDS011;16625;53.624;10.106;2022-07-09T01:40:38;17.03;;;5.13;;
4921;SDS011;16625;53.624;10.106;2022-07-09T01:43:06;12.10;;;4.73;;
4921;SDS011;16625;53.624;10.106;2022-07-09T01:45:34;12.33;;;5.27;;
4921;SDS011;16625;53.624;10.106;2022-07-09T01:48:15;13.50;;;5.90;;
4921;SDS011;16625;53.624;10.106;2022-07-09T01:50:42;12.17;;;3.97;;
4921;SDS011;16625;53.624;10.106;2022-07-09T01:53:10;14.73;;;5.53;;
4921;SDS011;16625;53.624;10.106;2022-07-09T01:55:37;11.40;;;4.83;;
4921;SDS011;16625;53.624;10.106;2022-07-09T01:58:04;8.63;;;4.83;;
4921;SDS011;16625;53.624;10.106;2022-07-09T02:00:31;11.07;;;4.60;;
4921;SDS011;16625;53.624;10.106;2022-07-09T02:02:58;13.70;;;5.53;;
4921;SDS011;16625;53.624;10.106;2022-07-09T02:05:25;33.47;;;5.87;;
4921;SDS011;16625;53.624;10.106;2022-07-09T02:07:54;17.80;;;5.00;;
4921;SDS011;16625;53.624;10.106;2022-07-09T02:10:22;27.73;;;6.30;;
4921;SDS011;16625;53.624;10.106;2022-07-09T02:12:50;28.73;;;5.90;;
4921;SDS011;16625;53.624;10.106;2022-07-09T02:15:16;16.33;;;5.30;;
4921;SDS011;16625;53.624;10.106;2022-07-09T02:17:43;21.87;;;4.97;;
4921;SDS011;16625;53.624;10.106;2022-07-09T02:20:10;23.23;;;5.77;;
4921;SDS011;16625;53.624;10.106;2022-07-09T02:22:37;11.47;;;4.70;;
4921;SDS011;16625;53.624;10.106;2022-07-09T02:25:05;20.60;;;5.27;;
4921;SDS011;16625;53.624;10.106;2022-07-09T02:27:34;18.53;;;5.47;;
4921;SDS011;16625;53.624;10.106;2022-07-09T02:30:01;10.37;;;4.93;;
4921;SDS011;16625;53.624;10.106;2022-07-09T02:32:28;13.80;;;4.33;;
4921;SDS011;16625;53.624;10.106;2022-07-09T02:34:55;19.70;;;5.40;;
4921;SDS011;16625;53.624;10.106;2022-07-09T02:37:22;10.30;;;4.73;;
4921;SDS011;16625;53.624;10.106;2022-07-09T02:39:48;18.33;;;5.83;;
4921;SDS011;16625;53.624;10.106;2022-07-09T02:42:15;16.63;;;4.53;;
4921;SDS011;16625;53.624;10.106;2022-07-09T02:44:44;13.70;;;5.13;;
4921;SDS011;16625;53.624;10.106;2022-07-09T02:47:11;23.00;;;5.33;;
4921;SDS011;16625;53.624;10.106;2022-07-09T02:49:38;14.70;;;4.43;;
4921;SDS011;16625;53.624;10.106;2022-07-09T02:52:06;14.33;;;5.20;;
4921;SDS011;16625;53.624;10.106;2022-07-09T02:54:33;11.43;;;5.17;;
4921;SDS011;16625;53.624;10.106;2022-07-09T02:56:59;10.80;;;4.80;;
4921;SDS011;16625;53.624;10.106;2022-07-09T02:59:26;25.40;;;5.17;;
4921;SDS011;16625;53.624;10.106;2022-07-09T03:01:55;13.87;;;5.30;;
4921;SDS011;16625;53.624;10.106;2022-07-09T03:04:22;13.47;;;4.90;;
4921;SDS011;16625;53.624;10.106;2022-07-09T03:06:49;15.40;;;5.00;;
4921;SDS011;16625;53.624;10.106;2022-07-09T03:09:16;12.70;;;5.03;;
4921;SDS011;16625;53.624;10.106;2022-07-09T03:11:43;29.47;;;6.10;;
4921;SDS011;16625;53.624;10.106;2022-07-09T03:14:09;18.17;;;5.73;;
4921;SDS011;16625;53.624;10.106;2022-07-09T03:16:36;11.77;;;4.90;;
4921;SDS011;16625;53.624;10.106;2022-07-09T03:19:09;13.73;;;5.57;;
4921;SDS011;16625;53.624;10.106;2022-07-09T03:21:36;12.00;;;5.73;;
4921;SDS011;16625;53.624;10.106;2022-07-09T03:24:03;19.67;;;5.90;;
4921;SDS011;16625;53.624;10.106;2022-07-09T03:26:33;14.53;;;5.17;;
4921;SDS011;16625;53.624;10.106;2022-07-09T03:29:01;19.53;;;6.43;;
4921;SDS011;16625;53.624;10.106;2022-07-09T03:31:28;29.63;;;6.93;;
4921;SDS011;16625;53.624;10.106;2022-07-09T03:33:55;21.57;;;6.33;;
4921;SDS011;16625;53.624;10.106;2022-07-09T03:36:24;8.23;;;4.70;;
4921;SDS011;16625;53.624;10.106;2022-07-09T03:38:52;17.23;;;4.80;;
4921;SDS011;16625;53.624;10.106;2022-07-09T03:41:19;7.53;;;4.27;;
4921;SDS011;16625;53.624;10.106;2022-07-09T03:43:47;8.50;;;5.20;;
4921;SDS011;16625;53.624;10.106;2022-07-09T03:46:14;18.73;;;5.97;;
4921;SDS011;16625;53.624;10.106;2022-07-09T03:48:41;16.23;;;4.80;;
4921;SDS011;16625;53.624;10.106;2022-07-09T03:51:07;17.20;;;4.70;;
4921;SDS011;16625;53.624;10.106;2022-07-09T03:53:36;12.73;;;5.03;;
4921;SDS011;16625;53.624;10.106;2022-07-09T03:56:03;12.67;;;4.70;;
4921;SDS011;16625;53.624;10.106;2022-07-09T03:58:30;17.50;;;5.53;;
4921;SDS011;16625;53.624;10.106;2022-07-09T04:00:57;11.60;;;4.90;;
4921;SDS011;16625;53.624;10.106;2022-07-09T04:03:24;8.87;;;4.60;;
4921;SDS011;16625;53.624;10.106;2022-07-09T04:05:51;14.07;;;6.60;;
4921;SDS011;16625;53.624;10.106;2022-07-09T04:08:18;17.80;;;5.07;;
4921;SDS011;16625;53.624;10.106;2022-07-09T04:10:47;7.80;;;4.07;;
4921;SDS011;16625;53.624;10.106;2022-07-09T04:13:14;13.03;;;4.00;;
4921;SDS011;16625;53.624;10.106;2022-07-09T04:15:41;23.63;;;7.33;;
4921;SDS011;16625;53.624;10.106;2022-07-09T04:18:11;14.70;;;4.80;;
4921;SDS011;16625;53.624;10.106;2022-07-09T04:20:40;17.77;;;5.13;;
4921;SDS011;16625;53.624;10.106;2022-07-09T04:23:07;12.43;;;4.30;;
4921;SDS011;16625;53.624;10.106;2022-07-09T04:25:34;12.50;;;6.17;;
4921;SDS011;16625;53.624;10.106;2022-07-09T04:28:03;12.83;;;5.23;;
4921;SDS011;16625;53.624;10.106;2022-07-09T04:30:31;10.50;;;4.33;;
4921;SDS011;16625;53.624;10.106;2022-07-09T04:32:59;12.50;;;5.20;;
4921;SDS011;16625;53.624;10.106;2022-07-09T04:35:26;13.50;;;4.60;;
4921;SDS011;16625;53.624;10.106;2022-07-09T04:37:54;9.33;;;4.40;;
4921;SDS011;16625;53.624;10.106;2022-07-09T04:40:22;12.70;;;4.77;;
4921;SDS011;16625;53.624;10.106;2022-07-09T04:42:49;11.50;;;4.70;;
4921;SDS011;16625;53.624;10.106;2022-07-09T04:45:18;13.30;;;4.50;;
4921;SDS011;16625;53.624;10.106;2022-07-09T04:47:45;9.90;;;5.50;;
4921;SDS011;16625;53.624;10.106;2022-07-09T04:50:13;16.90;;;4.83;;
4921;SDS011;16625;53.624;10.106;2022-07-09T04:52:40;28.10;;;5.40;;
4921;SDS011;16625;53.624;10.106;2022-07-09T04:55:07;13.87;;;5.70;;
4921;SDS011;16625;53.624;10.106;2022-07-09T04:57:36;13.00;;;4.50;;
4921;SDS011;16625;53.624;10.106;2022-07-09T05:00:03;14.13;;;4.87;;
4921;SDS011;16625;53.624;10.106;2022-07-09T05:02:33;10.20;;;4.50;;
4921;SDS011;16625;53.624;10.106;2022-07-09T05:05:01;15.70;;;4.43;;
4921;SDS011;16625;53.624;10.106;2022-07-09T05:07:29;8.63;;;4.23;;
4921;SDS011;16625;53.624;10.106;2022-07-09T05:09:56;8.17;;;4.40;;
4921;SDS011;16625;53.624;10.106;2022-07-09T05:12:23;13.87;;;5.43;;
4921;SDS011;16625;53.624;10.106;2022-07-09T05:14:51;10.20;;;5.33;;
4921;SDS011;16625;53.624;10.106;2022-07-09T05:17:18;11.73;;;5.37;;
4921;SDS011;16625;53.624;10.106;2022-07-09T05:19:47;8.30;;;4.53;;
4921;SDS011;16625;53.624;10.106;2022-07-09T05:22:14;6.50;;;4.37;;
4921;SDS011;16625;53.624;10.106;2022-07-09T05:24:41;10.93;;;4.53;;
4921;SDS011;16625;53.624;10.106;2022-07-09T05:27:10;8.10;;;4.30;;
4921;SDS011;16625;53.624;10.106;2022-07-09T05:29:37;9.33;;;3.93;;
4921;SDS011;16625;53.624;10.106;2022-07-09T05:32:04;7.23;;;4.30;;
4921;SDS011;16625;53.624;10.106;2022-07-09T05:34:33;10.10;;;3.93;;
4921;SDS011;16625;53.624;10.106;2022-07-09T05:37:01;11.03;;;4.50;;
4921;SDS011;16625;53.624;10.106;2022-07-09T05:39:28;8.00;;;4.80;;
4921;SDS011;16625;53.624;10.106;2022-07-09T05:41:55;18.23;;;4.47;;
4921;SDS011;16625;53.624;10.106;2022-07-09T05:44:23;9.23;;;4.30;;
4921;SDS011;16625;53.624;10.106;2022-07-09T05:46:50;14.80;;;4.80;;
4921;SDS011;16625;53.624;10.106;2022-07-09T05:49:17;13.03;;;4.33;;
4921;SDS011;16625;53.624;10.106;2022-07-09T05:51:44;7.60;;;3.83;;
4921;SDS011;16625;53.624;10.106;2022-07-09T05:54:13;8.90;;;4.03;;
4921;SDS011;16625;53.624;10.106;2022-07-09T05:56:40;7.30;;;4.47;;
4921;SDS011;16625;53.624;10.106;2022-07-09T05:59:07;7.20;;;3.50;;
4921;SDS011;16625;53.624;10.106;2022-07-09T06:01:34;14.80;;;3.73;;
4921;SDS011;16625;53.624;10.106;2022-07-09T06:04:04;10.10;;;4.00;;
4921;SDS011;16625;53.624;10.106;2022-07-09T06:06:32;15.50;;;4.13;;
4921;SDS011;16625;53.624;10.106;2022-07-09T06:08:59;7.37;;;3.40;;
4921;SDS011;16625;53.624;10.106;2022-07-09T06:11:36;9.40;;;4.40;;
4921;SDS011;16625;53.624;10.106;2022-07-09T06:14:03;13.27;;;3.93;;
4921;SDS011;16625;53.624;10.106;2022-07-09T06:16:29;8.83;;;4.30;;
4921;SDS011;16625;53.624;10.106;2022-07-09T06:18:56;6.57;;;3.73;;
4921;SDS011;16625;53.624;10.106;2022-07-09T06:21:25;11.63;;;5.20;;
4921;SDS011;16625;53.624;10.106;2022-07-09T06:23:52;8.07;;;4.20;;
4921;SDS011;16625;53.624;10.106;2022-07-09T06:26:19;11.10;;;5.53;;
4921;SDS011;16625;53.624;10.106;2022-07-09T06:28:51;10.73;;;4.87;;
4921;SDS011;16625;53.624;10.106;2022-07-09T06:31:18;9.23;;;5.60;;
4921;SDS011;16625;53.624;10.106;2022-07-09T06:33:45;10.13;;;4.70;;
4921;SDS011;16625;53.624;10.106;2022-07-09T06:36:13;5.30;;;4.70;;
4921;SDS011;16625;53.624;10.106;2022-07-09T06:38:43;10.63;;;5.03;;
4921;SDS011;16625;53.624;10.106;2022-07-09T06:41:27;11.20;;;3.67;;
4921;SDS011;16625;53.624;10.106;2022-07-09T06:43:57;10.87;;;4.80;;
4921;SDS011;16625;53.624;10.106;2022-07-09T06:46:24;8.90;;;4.30;;
4921;SDS011;16625;53.624;10.106;2022-07-09T06:48:51;6.70;;;4.97;;
4921;SDS011;16625;53.624;10.106;2022-07-09T06:51:18;7.07;;;4.00;;
4921;SDS011;16625;53.624;10.106;2022-07-09T06:53:45;12.00;;;3.90;;
4921;SDS011;16625;53.624;10.106;2022-07-09T06:56:12;6.03;;;4.30;;
4921;SDS011;16625;53.624;10.106;2022-07-09T06:58:39;11.27;;;4.30;;
4921;SDS011;16625;53.624;10.106;2022-07-09T07:01:08;5.00;;;3.20;;
4921;SDS011;16625;53.624;10.106;2022-07-09T07:03:35;9.87;;;5.17;;
4921;SDS011;16625;53.624;10.106;2022-07-09T07:06:01;6.27;;;4.50;;
4921;SDS011;16625;53.624;10.106;2022-07-09T07:08:28;8.00;;;4.40;;
4921;SDS011;16625;53.624;10.106;2022-07-09T07:10:55;12.43;;;3.80;;
4921;SDS011;16625;53.624;10.106;2022-07-09T07:13:22;7.50;;;3.90;;
4921;SDS011;16625;53.624;10.106;2022-07-09T07:15:48;8.40;;;3.63;;
4921;SDS011;16625;53.624;10.106;2022-07-09T07:18:17;6.90;;;4.40;;
4921;SDS011;16625;53.624;10.106;2022-07-09T07:20:44;8.90;;;4.20;;
4921;SDS011;16625;53.624;10.106;2022-07-09T07:23:11;9.17;;;3.67;;
4921;SDS011;16625;53.624;10.106;2022-07-09T07:25:38;12.70;;;3.67;;
4921;SDS011;16625;53.624;10.106;2022-07-09T07:28:04;6.00;;;3.00;;
4921;SDS011;16625;53.624;10.106;2022-07-09T07:30:31;9.70;;;3.60;;
4921;SDS011;16625;53.624;10.106;2022-07-09T07:32:59;7.10;;;3.07;;
4921;SDS011;16625;53.624;10.106;2022-07-09T07:35:27;7.77;;;2.57;;
4921;SDS011;16625;53.624;10.106;2022-07-09T07:37:54;8.40;;;3.90;;
4921;SDS011;16625;53.624;10.106;2022-07-09T07:40:22;8.20;;;3.10;;
4921;SDS011;16625;53.624;10.106;2022-07-09T07:42:49;11.40;;;3.80;;
4921;SDS011;16625;53.624;10.106;2022-07-09T07:45:16;10.07;;;3.40;;
4921;SDS011;16625;53.624;10.106;2022-07-09T07:47:43;12.50;;;3.23;;
4921;SDS011;16625;53.624;10.106;2022-07-09T07:50:10;5.63;;;2.70;;
4921;SDS011;16625;53.624;10.106;2022-07-09T07:52:39;8.27;;;3.30;;
4921;SDS011;16625;53.624;10.106;2022-07-09T07:55:07;8.90;;;3.20;;
4921;SDS011;16625;53.624;10.106;2022-07-09T07:57:42;9.40;;;3.10;;
4921;SDS011;16625;53.624;10.106;2022-07-09T08:40:40;9.10;;;4.37;;
4921;SDS011;16625;53.624;10.106;2022-07-09T08:54:28;10.63;;;2.70;;
4921;SDS011;16625;53.624;10.106;2022-07-09T08:57:00;5.00;;;2.47;;
4921;SDS011;16625;53.624;10.106;2022-07-09T08:59:29;5.90;;;2.47;;
4921;SDS011;16625;53.624;10.106;2022-07-09T09:02:16;4.33;;;2.30;;
4921;SDS011;16625;53.624;10.106;2022-07-09T10:59:36;4.00;;;2.30;;
4921;SDS011;16625;53.624;10.106;2022-07-09T11:05:07;8.53;;;2.00;;
4921;SDS011;16625;53.624;10.106;2022-07-09T11:08:04;5.10;;;1.87;;
4921;SDS011;16625;53.624;10.106;2022-07-09T11:10:35;4.60;;;2.10;;
4921;SDS011;16625;53.624;10.106;2022-07-09T11:13:05;5.60;;;2.17;;
4921;SDS011;16625;53.624;10.106;2022-07-09T11:47:06;13.13;;;1.60;;
4921;SDS011;16625;53.624;10.106;2022-07-09T11:58:23;9.53;;;1.90;;
4921;SDS011;16625;53.624;10.106;2022-07-09T12:00:54;3.63;;;1.70;;
4921;SDS011;16625;53.624;10.106;2022-07-09T12:03:34;2.80;;;1.50;;
4921;SDS011;16625;53.624;10.106;2022-07-09T12:06:06;2.40;;;1.60;;
4921;SDS011;16625;53.624;10.106;2022-07-09T12:09:32;2.30;;;1.60;;
4921;SDS011;16625;53.624;10.106;2022-07-09T12:12:08;5.07;;;1.47;;
4921;SDS011;16625;53.624;10.106;2022-07-09T12:14:46;3.07;;;1.60;;
4921;SDS011;16625;53.624;10.106;2022-07-09T12:17:17;5.20;;;1.67;;
4921;SDS011;16625;53.624;10.106;2022-07-09T12:29:39;2.77;;;1.50;;
4921;SDS011;16625;53.624;10.106;2022-07-09T12:32:10;2.30;;;1.40;;
4921;SDS011;16625;53.624;10.106;2022-07-09T12:34:46;5.37;;;1.77;;
4921;SDS011;16625;53.624;10.106;2022-07-09T12:37:13;2.83;;;1.73;;
4921;SDS011;16625;53.624;10.106;2022-07-09T12:39:45;3.70;;;1.70;;
4921;SDS011;16625;53.624;10.106;2022-07-09T12:42:14;2.20;;;1.60;;
4921;SDS011;16625;53.624;10.106;2022-07-09T12:44:44;3.30;;;1.97;;
4921;SDS011;16625;53.624;10.106;2022-07-09T12:47:11;4.93;;;1.57;;
4921;SDS011;16625;53.624;10.106;2022-07-09T12:49:40;6.10;;;2.30;;
4921;SDS011;16625;53.624;10.106;2022-07-09T12:52:07;8.13;;;2.03;;
4921;SDS011;16625;53.624;10.106;2022-07-09T12:54:35;9.80;;;2.30;;
4921;SDS011;16625;53.624;10.106;2022-07-09T12:57:05;12.13;;;2.30;;
4921;SDS011;16625;53.624;10.106;2022-07-09T12:59:33;4.53;;;1.73;;
4921;SDS011;16625;53.624;10.106;2022-07-09T13:02:05;7.63;;;2.03;;
4921;SDS011;16625;53.624;10.106;2022-07-09T13:04:35;3.23;;;2.23;;
4921;SDS011;16625;53.624;10.106;2022-07-09T13:07:02;10.60;;;2.90;;
4921;SDS011;16625;53.624;10.106;2022-07-09T13:09:31;4.17;;;2.60;;
4921;SDS011;16625;53.624;10.106;2022-07-09T13:11:59;5.77;;;1.67;;
4921;SDS011;16625;53.624;10.106;2022-07-09T13:14:31;6.60;;;1.83;;
4921;SDS011;16625;53.624;10.106;2022-07-09T13:16:59;9.03;;;2.37;;
4921;SDS011;16625;53.624;10.106;2022-07-09T13:19:47;3.70;;;1.80;;
4921;SDS011;16625;53.624;10.106;2022-07-09T13:25:12;8.93;;;1.90;;
4921;SDS011;16625;53.624;10.106;2022-07-09T13:31:06;3.77;;;1.90;;
4921;SDS011;16625;53.624;10.106;2022-07-09T13:33:37;8.83;;;2.47;;
4921;SDS011;16625;53.624;10.106;2022-07-09T13:36:05;5.03;;;1.83;;
4921;SDS011;16625;53.624;10.106;2022-07-09T13:38:32;4.50;;;1.93;;
4921;SDS011;16625;53.624;10.106;2022-07-09T13:41:00;3.10;;;1.60;;
4921;SDS011;16625;53.624;10.106;2022-07-09T13:43:27;4.33;;;1.90;;
4921;SDS011;16625;53.624;10.106;2022-07-09T13:45:55;3.33;;;1.47;;
4921;SDS011;16625;53.624;10.106;2022-07-09T13:48:25;5.23;;;1.77;;
4921;SDS011;16625;53.624;10.106;2022-07-09T13:50:53;4.03;;;1.80;;
4921;SDS011;16625;53.624;10.106;2022-07-09T13:53:20;3.37;;;1.70;;
4921;SDS011;16625;53.624;10.106;2022-07-09T13:55:47;3.73;;;1.53;;
4921;SDS011;16625;53.624;10.106;2022-07-09T13:58:17;5.00;;;1.40;;
4921;SDS011;16625;53.624;10.106;2022-07-09T14:04:30;6.60;;;2.03;;
4921;SDS011;16625;53.624;10.106;2022-07-09T14:07:02;4.77;;;2.37;;
4921;SDS011;16625;53.624;10.106;2022-07-09T14:09:30;8.53;;;2.10;;
4921;SDS011;16625;53.624;10.106;2022-07-09T14:12:05;5.50;;;1.83;;
4921;SDS011;16625;53.624;10.106;2022-07-09T14:15:13;11.53;;;1.80;;
4921;SDS011;16625;53.624;10.106;2022-07-09T14:17:49;6.93;;;1.60;;
4921;SDS011;16625;53.624;10.106;2022-07-09T14:20:18;6.43;;;1.90;;
4921;SDS011;16625;53.624;10.106;2022-07-09T14:22:57;7.03;;;2.00;;
4921;SDS011;16625;53.624;10.106;2022-07-09T14:25:27;4.00;;;1.60;;
4921;SDS011;16625;53.624;10.106;2022-07-09T14:28:00;4.77;;;1.67;;
4921;SDS011;16625;53.624;10.106;2022-07-09T14:30:27;5.83;;;2.03;;
4921;SDS011;16625;53.624;10.106;2022-07-09T14:32:54;11.67;;;2.00;;
4921;SDS011;16625;53.624;10.106;2022-07-09T14:35:23;8.83;;;2.03;;
4921;SDS011;16625;53.624;10.106;2022-07-09T14:37:50;6.10;;;1.90;;
4921;SDS011;16625;53.624;10.106;2022-07-09T14:40:17;3.90;;;2.63;;
4921;SDS011;16625;53.624;10.106;2022-07-09T14:42:44;5.17;;;1.70;;
4921;SDS011;16625;53.624;10.106;2022-07-09T14:45:11;5.37;;;1.97;;
4921;SDS011;16625;53.624;10.106;2022-07-09T14:47:38;2.87;;;1.90;;
4921;SDS011;16625;53.624;10.106;2022-07-09T14:50:19;5.40;;;1.40;;
4921;SDS011;16625;53.624;10.106;2022-07-09T14:53:16;6.33;;;2.20;;
4921;SDS011;16625;53.624;10.106;2022-07-09T14:56:01;4.60;;;1.80;;
4921;SDS011;16625;53.624;10.106;2022-07-09T14:59:04;8.70;;;2.20;;
4921;SDS011;16625;53.624;10.106;2022-07-09T15:01:33;5.13;;;1.93;;
4921;SDS011;16625;53.624;10.106;2022-07-09T15:04:29;4.70;;;1.87;;
4921;SDS011;16625;53.624;10.106;2022-07-09T15:07:16;5.03;;;2.00;;
4921;SDS011;16625;53.624;10.106;2022-07-09T15:09:59;7.83;;;2.13;;
4921;SDS011;16625;53.624;10.106;2022-07-09T15:12:30;3.77;;;1.83;;
4921;SDS011;16625;53.624;10.106;2022-07-09T15:15:14;3.67;;;2.00;;
4921;SDS011;16625;53.624;10.106;2022-07-09T15:17:51;6.23;;;2.87;;
4921;SDS011;16625;53.624;10.106;2022-07-09T15:20:33;3.37;;;1.90;;
4921;SDS011;16625;53.624;10.106;2022-07-09T15:23:21;13.13;;;2.20;;
4921;SDS011;16625;53.624;10.106;2022-07-09T15:25:56;7.03;;;2.53;;
4921;SDS011;16625;53.624;10.106;2022-07-09T15:28:35;5.60;;;2.17;;
4921;SDS011;16625;53.624;10.106;2022-07-09T15:31:07;14.30;;;2.20;;
4921;SDS011;16625;53.624;10.106;2022-07-09T15:33:35;5.17;;;1.80;;
4921;SDS011;16625;53.624;10.106;2022-07-09T15:36:06;4.40;;;1.77;;
4921;SDS011;16625;53.624;10.106;2022-07-09T15:38:40;3.90;;;1.80;;
4921;SDS011;16625;53.624;10.106;2022-07-09T15:41:15;5.20;;;1.93;;
4921;SDS011;16625;53.624;10.106;2022-07-09T15:43:45;5.50;;;1.50;;
4921;SDS011;16625;53.624;10.106;2022-07-09T15:46:13;5.80;;;1.77;;
4921;SDS011;16625;53.624;10.106;2022-07-09T15:48:56;9.73;;;3.10;;
4921;SDS011;16625;53.624;10.106;2022-07-09T15:51:30;5.10;;;1.90;;
4921;SDS011;16625;53.624;10.106;2022-07-09T15:53:59;6.03;;;1.80;;
4921;SDS011;16625;53.624;10.106;2022-07-09T15:56:30;8.77;;;3.10;;
4921;SDS011;16625;53.624;10.106;2022-07-09T15:59:03;3.90;;;2.13;;
4921;SDS011;16625;53.624;10.106;2022-07-09T16:01:39;24.33;;;2.43;;
4921;SDS011;16625;53.624;10.106;2022-07-09T16:04:07;7.93;;;3.00;;
4921;SDS011;16625;53.624;10.106;2022-07-09T16:06:35;5.30;;;1.67;;
4921;SDS011;16625;53.624;10.106;2022-07-09T16:09:03;2.83;;;1.40;;
4921;SDS011;16625;53.624;10.106;2022-07-09T16:11:36;5.50;;;2.30;;
4921;SDS011;16625;53.624;10.106;2022-07-09T16:14:22;4.13;;;1.80;;
4921;SDS011;16625;53.624;10.106;2022-07-09T16:16:50;5.90;;;1.97;;
4921;SDS011;16625;53.624;10.106;2022-07-09T16:19:17;6.37;;;1.70;;
4921;SDS011;16625;53.624;10.106;2022-07-09T16:21:45;6.17;;;2.33;;
4921;SDS011;16625;53.624;10.106;2022-07-09T16:24:23;7.47;;;1.40;;
4921;SDS011;16625;53.624;10.106;2022-07-09T16:26:53;6.23;;;2.03;;
4921;SDS011;16625;53.624;10.106;2022-07-09T16:29:20;10.37;;;2.40;;
4921;SDS011;16625;53.624;10.106;2022-07-09T16:31:50;4.13;;;1.70;;
4921;SDS011;16625;53.624;10.106;2022-07-09T16:34:20;9.80;;;2.13;;
4921;SDS011;16625;53.624;10.106;2022-07-09T16:36:47;4.87;;;1.50;;
4921;SDS011;16625;53.624;10.106;2022-07-09T16:39:14;7.50;;;2.57;;
4921;SDS011;16625;53.624;10.106;2022-07-09T16:41:42;12.73;;;2.43;;
4921;SDS011;16625;53.624;10.106;2022-07-09T16:46:55;5.10;;;1.40;;
4921;SDS011;16625;53.624;10.106;2022-07-09T16:49:25;9.70;;;2.50;;
4921;SDS011;16625;53.624;10.106;2022-07-09T16:51:53;5.53;;;1.90;;
4921;SDS011;16625;53.624;10.106;2022-07-09T16:54:20;4.00;;;1.90;;
4921;SDS011;16625;53.624;10.106;2022-07-09T16:56:49;11.50;;;2.07;;
4921;SDS011;16625;53.624;10.106;2022-07-09T16:59:16;6.23;;;2.30;;
4921;SDS011;16625;53.624;10.106;2022-07-09T17:01:49;7.53;;;2.30;;
4921;SDS011;16625;53.624;10.106;2022-07-09T17:04:17;6.40;;;2.23;;
4921;SDS011;16625;53.624;10.106;2022-07-09T17:06:45;6.07;;;2.17;;
4921;SDS011;16625;53.624;10.106;2022-07-09T17:09:13;5.30;;;2.40;;
4921;SDS011;16625;53.624;10.106;2022-07-09T17:11:40;8.60;;;2.77;;
4921;SDS011;16625;53.624;10.106;2022-07-09T17:14:07;9.20;;;2.70;;
4921;SDS011;16625;53.624;10.106;2022-07-09T17:16:34;6.63;;;2.03;;
4921;SDS011;16625;53.624;10.106;2022-07-09T17:19:03;4.67;;;2.50;;
4921;SDS011;16625;53.624;10.106;2022-07-09T17:21:30;12.70;;;2.10;;
4921;SDS011;16625;53.624;10.106;2022-07-09T17:23:59;8.60;;;2.63;;
4921;SDS011;16625;53.624;10.106;2022-07-09T17:26:57;6.47;;;1.90;;
4921;SDS011;16625;53.624;10.106;2022-07-09T17:29:25;4.47;;;1.83;;
4921;SDS011;16625;53.624;10.106;2022-07-09T17:31:53;6.57;;;2.60;;
4921;SDS011;16625;53.624;10.106;2022-07-09T17:34:21;11.53;;;1.97;;
4921;SDS011;16625;53.624;10.106;2022-07-09T17:36:50;10.83;;;2.10;;
4921;SDS011;16625;53.624;10.106;2022-07-09T17:39:18;10.77;;;2.77;;
4921;SDS011;16625;53.624;10.106;2022-07-09T17:41:47;10.53;;;2.10;;
4921;SDS011;16625;53.624;10.106;2022-07-09T17:44:23;6.83;;;1.70;;
4921;SDS011;16625;53.624;10.106;2022-07-09T17:46:51;6.07;;;2.30;;
4921;SDS011;16625;53.624;10.106;2022-07-09T17:49:20;9.90;;;2.40;;
4921;SDS011;16625;53.624;10.106;2022-07-09T17:51:48;22.93;;;3.57;;
4921;SDS011;16625;53.624;10.106;2022-07-09T17:54:16;10.97;;;2.20;;
4921;SDS011;16625;53.624;10.106;2022-07-09T17:56:46;13.07;;;2.77;;
4921;SDS011;16625;53.624;10.106;2022-07-09T17:59:13;8.03;;;2.40;;
4921;SDS011;16625;53.624;10.106;2022-07-09T18:01:41;6.60;;;2.17;;
4921;SDS011;16625;53.624;10.106;2022-07-09T18:04:08;2.93;;;1.53;;
4921;SDS011;16625;53.624;10.106;2022-07-09T18:06:39;6.27;;;2.00;;
4921;SDS011;16625;53.624;10.106;2022-07-09T18:09:10;8.20;;;2.00;;
4921;SDS011;16625;53.624;10.106;2022-07-09T18:11:38;4.40;;;2.00;;
4921;SDS011;16625;53.624;10.106;2022-07-09T18:14:06;6.03;;;1.90;;
4921;SDS011;16625;53.624;10.106;2022-07-09T18:16:33;6.17;;;2.10;;
4921;SDS011;16625;53.624;10.106;2022-07-09T18:19:14;10.03;;;2.80;;
4921;SDS011;16625;53.624;10.106;2022-07-09T18:21:44;12.63;;;2.30;;
4921;SDS011;16625;53.624;10.106;2022-07-09T18:24:13;11.40;;;3.33;;
4921;SDS011;16625;53.624;10.106;2022-07-09T18:26:41;6.03;;;1.77;;
4921;SDS011;16625;53.624;10.106;2022-07-09T18:29:08;5.20;;;1.87;;
4921;SDS011;16625;53.624;10.106;2022-07-09T18:31:38;5.30;;;2.10;;
4921;SDS011;16625;53.624;10.106;2022-07-09T18:34:06;6.73;;;2.07;;
4921;SDS011;16625;53.624;10.106;2022-07-09T18:36:34;3.80;;;1.70;;
4921;SDS011;16625;53.624;10.106;2022-07-09T18:39:04;6.50;;;1.80;;
4921;SDS011;16625;53.624;10.106;2022-07-09T18:41:31;9.17;;;1.90;;
4921;SDS011;16625;53.624;10.106;2022-07-09T18:43:58;7.03;;;2.57;;
4921;SDS011;16625;53.624;10.106;2022-07-09T18:46:25;7.00;;;2.20;;
4921;SDS011;16625;53.624;10.106;2022-07-09T18:48:52;4.13;;;2.00;;
4921;SDS011;16625;53.624;10.106;2022-07-09T18:51:20;9.40;;;2.40;;
4921;SDS011;16625;53.624;10.106;2022-07-09T18:53:47;11.90;;;2.30;;